Time;durP1;ratioP1;P1;durP2;ratioP2;P2;SDS_P1;SDS_P2;PMS_P1;PMS_P2;Temp;Humidity;BMP_temperature;BMP_pressure;BME280_temperature;BME280_humidity;BME280_pressure;Samples;Min_cycle;Max_cycle;Signal;HPM_P1;HPM_P2
2020/12/10 00:01:42;;;;;;;4.97;1.30;;;;;;;5.79;100.00;100510.66;5010729;28;20950;-77
2020/12/10 00:04:07;;;;;;;4.40;1.20;;;;;;;5.82;100.00;100515.34;5010022;28;20193;-75
2020/12/10 00:06:32;;;;;;;4.87;1.93;;;;;;;5.77;100.00;100510.22;5012142;28;20180;-76
2020/12/10 00:08:58;;;;;;;8.27;1.50;;;;;;;5.74;100.00;100505.50;5011935;28;20190;-76
2020/12/10 00:11:23;;;;;;;4.47;1.20;;;;;;;5.78;100.00;100501.88;5005333;28;20707;-76
2020/12/10 00:13:49;;;;;;;5.53;1.30;;;;;;;5.80;100.00;100499.66;5004383;28;20724;-76
2020/12/10 00:16:15;;;;;;;3.83;1.20;;;;;;;5.73;100.00;100495.94;5010577;28;20177;-76
2020/12/10 00:18:40;;;;;;;4.63;1.60;;;;;;;5.76;100.00;100501.41;5012193;28;20530;-76
2020/12/10 00:21:07;;;;;;;4.30;1.20;;;;;;;5.65;100.00;100507.47;5011711;28;20239;-76
2020/12/10 00:23:33;;;;;;;5.60;1.47;;;;;;;5.76;100.00;100503.28;4995053;28;20184;-75
2020/12/10 00:25:58;;;;;;;3.93;1.40;;;;;;;5.78;100.00;100504.53;5012760;28;20439;-76
2020/12/10 00:28:24;;;;;;;3.80;1.20;;;;;;;5.65;100.00;100494.91;5012509;28;20557;-76
2020/12/10 00:30:49;;;;;;;3.50;1.20;;;;;;;5.74;100.00;100490.25;4994396;28;20231;-76
2020/12/10 00:33:15;;;;;;;8.77;1.93;;;;;;;5.82;100.00;100496.66;5011838;28;20180;-76
2020/12/10 00:35:40;;;;;;;4.57;1.30;;;;;;;5.87;100.00;100491.13;5010572;28;20188;-76
2020/12/10 00:38:06;;;;;;;7.70;2.00;;;;;;;5.53;100.00;100486.81;5007958;28;20205;-76
2020/12/10 00:40:31;;;;;;;7.30;2.00;;;;;;;5.67;100.00;100489.97;5012758;28;20574;-76
2020/12/10 00:42:57;;;;;;;5.83;1.40;;;;;;;5.73;100.00;100488.69;5011777;28;20267;-76
2020/12/10 00:45:22;;;;;;;7.53;1.60;;;;;;;5.73;100.00;100488.69;5000939;28;20184;-76
2020/12/10 00:47:48;;;;;;;2.77;0.67;;;;;;;5.85;100.00;100480.78;4995130;28;20258;-76
2020/12/10 00:50:14;;;;;;;5.53;1.50;;;;;;;5.49;100.00;100484.00;5011294;28;20172;-76
2020/12/10 00:52:40;;;;;;;5.40;1.27;;;;;;;5.55;100.00;100481.94;5012709;28;20238;-77
2020/12/10 00:55:11;;;;;;;4.20;1.23;;;;;;;5.50;100.00;100472.22;5010996;28;20439;-76
2020/12/10 00:57:39;;;;;;;4.43;1.63;;;;;;;5.60;100.00;100478.25;5009916;28;20471;-76
2020/12/10 01:00:07;;;;;;;7.33;1.90;;;;;;;5.48;100.00;100481.63;4991770;28;20432;-77
2020/12/10 01:02:32;;;;;;;4.13;1.37;;;;;;;5.55;100.00;100476.59;5013040;28;20645;-78
2020/12/10 01:04:58;;;;;;;5.77;1.77;;;;;;;5.57;100.00;100484.25;5013511;28;20434;-77
2020/12/10 01:07:23;;;;;;;5.30;1.87;;;;;;;5.61;100.00;100472.63;5013154;28;20272;-78
2020/12/10 01:09:49;;;;;;;4.27;1.50;;;;;;;5.63;100.00;100477.63;5001535;28;20228;-78
2020/12/10 01:12:14;;;;;;;6.47;1.83;;;;;;;5.73;100.00;100475.31;5013531;28;20216;-77
2020/12/10 01:14:40;;;;;;;5.03;1.40;;;;;;;5.77;100.00;100478.16;5011503;28;20184;-78
2020/12/10 01:17:05;;;;;;;4.90;1.40;;;;;;;5.87;100.00;100483.09;5013898;28;20185;-78
2020/12/10 01:19:31;;;;;;;4.23;1.20;;;;;;;5.85;100.00;100479.97;5012107;28;20558;-78
2020/12/10 01:21:56;;;;;;;5.60;1.93;;;;;;;5.87;100.00;100473.22;5005231;28;20212;-78
2020/12/10 01:24:22;;;;;;;5.00;1.50;;;;;;;5.76;100.00;100468.56;5011324;28;20467;-78
2020/12/10 01:26:47;;;;;;;5.90;1.47;;;;;;;5.73;100.00;100478.00;5002098;28;20192;-78
2020/12/10 01:29:13;;;;;;;5.83;1.90;;;;;;;5.66;100.00;100474.28;5009835;28;20177;-78
2020/12/10 01:31:38;;;;;;;4.73;1.67;;;;;;;5.62;100.00;100470.72;5006590;28;20216;-78
2020/12/10 01:34:04;;;;;;;8.20;1.47;;;;;;;5.39;100.00;100473.72;5014279;28;20184;-77
2020/12/10 01:36:31;;;;;;;4.57;1.10;;;;;;;5.62;100.00;100460.81;5011798;28;20645;-78
2020/12/10 01:38:57;;;;;;;2.47;0.57;;;;;;;5.64;100.00;100463.16;5001521;28;20212;-77
2020/12/10 01:41:29;;;;;;;8.17;2.00;;;;;;;5.61;100.00;100464.59;5005956;28;20870;-78
2020/12/10 01:44:03;;;;;;;6.07;1.70;;;;;;;5.71;100.00;100463.44;5006623;28;20487;-77
2020/12/10 01:46:28;;;;;;;6.33;2.00;;;;;;;5.81;100.00;100466.47;5009952;28;20447;-78
2020/12/10 01:48:54;;;;;;;3.70;1.30;;;;;;;5.80;100.00;100464.13;5010242;28;21079;-78
2020/12/10 01:51:20;;;;;;;5.40;1.03;;;;;;;5.79;100.00;100466.00;5009717;28;20558;-78
2020/12/10 01:53:45;;;;;;;5.43;1.53;;;;;;;5.84;100.00;100462.41;5010969;28;20593;-78
2020/12/10 01:56:11;;;;;;;5.70;1.20;;;;;;;5.85;100.00;100453.25;5011070;28;20189;-78
2020/12/10 01:58:36;;;;;;;4.53;1.90;;;;;;;5.77;100.00;100456.78;5011601;28;20204;-78
2020/12/10 02:01:02;;;;;;;6.40;1.77;;;;;;;5.71;100.00;100461.50;5012224;28;20197;-78
2020/12/10 02:03:28;;;;;;;4.13;1.30;;;;;;;5.75;100.00;100450.97;5007788;28;20191;-76
2020/12/10 02:05:53;;;;;;;7.30;1.33;;;;;;;5.61;100.00;100455.81;5008625;28;20531;-76
2020/12/10 02:08:19;;;;;;;5.27;0.93;;;;;;;5.73;100.00;100461.22;5011094;28;20227;-78
2020/12/10 02:10:44;;;;;;;4.93;1.20;;;;;;;5.75;100.00;100451.75;4999754;28;20205;-76
2020/12/10 02:13:10;;;;;;;4.17;1.20;;;;;;;5.78;100.00;100450.31;5011931;28;20278;-78
2020/12/10 02:15:55;;;;;;;7.07;1.43;;;;;;;5.80;100.00;100445.44;5010109;28;20226;-78
2020/12/10 02:18:21;;;;;;;5.33;1.23;;;;;;;5.78;100.00;100442.31;4976286;28;20313;-78
2020/12/10 02:20:46;;;;;;;5.87;1.70;;;;;;;5.78;100.00;100443.09;4956389;28;20555;-78
2020/12/10 02:23:12;;;;;;;6.33;2.13;;;;;;;5.70;100.00;100441.28;4955930;28;20656;-78
2020/12/10 02:25:39;;;;;;;7.00;1.73;;;;;;;5.71;100.00;100436.72;4976484;28;20193;-80
2020/12/10 02:28:09;;;;;;;3.80;0.90;;;;;;;5.79;100.00;100433.19;4979309;28;20284;-80
2020/12/10 02:30:35;;;;;;;5.00;1.30;;;;;;;5.72;100.00;100433.72;4989152;28;20919;-80
2020/12/10 02:33:04;;;;;;;3.00;0.67;;;;;;;5.73;100.00;100432.59;4971107;28;20546;-80
2020/12/10 02:35:30;;;;;;;4.70;1.30;;;;;;;5.80;100.00;100426.72;4968989;28;20206;-80
2020/12/10 02:37:57;;;;;;;6.43;1.37;;;;;;;5.68;100.00;100424.78;4962687;28;20465;-79
2020/12/10 02:40:25;;;;;;;5.33;1.97;;;;;;;5.60;100.00;100422.97;4974592;28;20960;-79
2020/12/10 02:42:51;;;;;;;3.67;1.07;;;;;;;5.58;100.00;100416.38;4989891;28;20436;-79
2020/12/10 02:45:18;;;;;;;4.50;1.83;;;;;;;5.63;100.00;100418.88;4987569;28;20975;-79
2020/12/10 02:47:43;;;;;;;6.27;1.77;;;;;;;5.77;100.00;100414.03;4973193;28;20200;-80
2020/12/10 02:50:09;;;;;;;4.20;0.90;;;;;;;5.66;100.00;100413.66;4985922;28;20451;-78
2020/12/10 02:52:35;;;;;;;8.30;1.70;;;;;;;5.74;100.00;100415.47;4959777;28;20360;-78
2020/12/10 02:55:01;;;;;;;4.90;1.47;;;;;;;5.82;100.00;100419.16;5005560;28;20673;-78
2020/12/10 02:57:26;;;;;;;5.77;0.87;;;;;;;5.80;100.00;100414.16;5013419;28;20692;-79
2020/12/10 02:59:52;;;;;;;4.97;1.40;;;;;;;5.67;100.00;100407.19;5009666;28;20439;-79
2020/12/10 03:02:18;;;;;;;2.73;0.73;;;;;;;5.66;100.00;100410.19;5016880;28;20632;-78
2020/12/10 03:05:03;;;;;;;2.50;0.63;;;;;;;5.63;100.00;100403.63;5016867;28;20177;-79
2020/12/10 03:07:29;;;;;;;4.20;1.27;;;;;;;5.55;100.00;100409.03;4957325;28;20189;-79
2020/12/10 03:09:54;;;;;;;2.13;0.70;;;;;;;5.55;100.00;100401.03;4978199;28;20794;-78
2020/12/10 03:12:20;;;;;;;3.93;0.93;;;;;;;5.61;100.00;100399.72;4976673;28;20240;-79
2020/12/10 03:14:45;;;;;;;5.30;1.43;;;;;;;5.59;100.00;100391.25;4979616;28;20216;-79
2020/12/10 03:17:11;;;;;;;3.23;0.90;;;;;;;5.58;100.00;100395.00;4993196;28;20193;-78
2020/12/10 03:19:36;;;;;;;4.40;1.00;;;;;;;5.58;100.00;100393.13;4982272;28;20560;-78
2020/12/10 03:22:03;;;;;;;2.40;0.70;;;;;;;5.34;100.00;100385.78;4979786;28;20329;-78
2020/12/10 03:24:28;;;;;;;4.00;1.40;;;;;;;5.43;100.00;100386.53;4995218;28;20272;-78
2020/12/10 03:26:54;;;;;;;5.00;1.57;;;;;;;5.55;100.00;100385.00;4994878;28;20572;-79
2020/12/10 03:29:20;;;;;;;2.93;0.67;;;;;;;5.49;100.00;100387.09;4977127;28;20221;-78
2020/12/10 03:31:45;;;;;;;4.37;1.33;;;;;;;5.53;100.00;100382.66;4995887;28;20217;-79
2020/12/10 03:34:11;;;;;;;5.33;1.33;;;;;;;5.59;100.00;100384.03;4980033;28;20229;-79
2020/12/10 03:36:50;;;;;;;5.27;1.33;;;;;;;5.63;100.00;100373.47;4990058;28;20212;-79
2020/12/10 03:39:17;;;;;;;5.27;1.33;;;;;;;5.59;100.00;100383.25;4972904;28;20244;-77
2020/12/10 03:41:43;;;;;;;4.97;1.20;;;;;;;5.61;100.00;100381.03;4989360;28;20473;-79
2020/12/10 03:44:10;;;;;;;4.00;1.10;;;;;;;5.63;100.00;100389.50;4990479;28;20428;-79
2020/12/10 03:46:35;;;;;;;2.80;0.80;;;;;;;5.67;100.00;100377.03;4999144;28;20802;-79
2020/12/10 03:49:01;;;;;;;3.47;0.83;;;;;;;5.53;100.00;100372.75;5016574;28;20445;-79
2020/12/10 03:51:26;;;;;;;3.47;0.70;;;;;;;5.57;100.00;100367.56;5015651;28;20205;-79
2020/12/10 03:53:52;;;;;;;4.10;1.10;;;;;;;5.63;100.00;100366.25;4997507;28;20227;-78
2020/12/10 03:56:17;;;;;;;8.20;1.80;;;;;;;5.71;100.00;100365.34;5013997;28;20185;-79
2020/12/10 03:58:43;;;;;;;3.30;0.70;;;;;;;5.71;100.00;100367.28;5003943;28;20751;-78
2020/12/10 04:01:08;;;;;;;2.93;0.80;;;;;;;5.72;100.00;100369.59;5024008;28;20196;-78
2020/12/10 04:03:34;;;;;;;3.37;0.93;;;;;;;5.66;100.00;100373.59;5023832;28;20273;-78
2020/12/10 04:05:59;;;;;;;4.37;1.10;;;;;;;5.63;100.00;100368.91;5024514;28;20211;-78
2020/12/10 04:08:25;;;;;;;4.40;1.30;;;;;;;5.47;100.00;100365.28;5024338;28;20173;-78
2020/12/10 04:10:50;;;;;;;4.10;1.10;;;;;;;5.40;100.00;100378.38;5016104;28;20251;-78
2020/12/10 04:13:36;;;;;;;4.73;1.00;;;;;;;5.35;100.00;100363.34;4992272;28;20185;-80
2020/12/10 04:16:02;;;;;;;4.23;1.27;;;;;;;5.43;100.00;100372.38;4947160;28;20251;-79
2020/12/10 04:18:29;;;;;;;3.07;0.77;;;;;;;5.48;100.00;100370.28;4989379;28;20515;-78
2020/12/10 04:20:55;;;;;;;3.47;0.50;;;;;;;5.33;100.00;100362.09;4990103;28;20507;-77
2020/12/10 04:23:21;;;;;;;4.33;0.90;;;;;;;5.15;100.00;100368.69;4982416;28;20445;-79
2020/12/10 04:25:54;;;;;;;5.43;1.63;;;;;;;5.31;100.00;100365.09;4966756;28;20251;-78
2020/12/10 04:28:20;;;;;;;3.27;0.87;;;;;;;5.34;100.00;100364.44;4967670;28;21099;-79
2020/12/10 04:30:46;;;;;;;5.07;1.30;;;;;;;5.22;100.00;100366.28;4975053;28;20491;-78
2020/12/10 04:33:12;;;;;;;3.80;1.17;;;;;;;5.32;100.00;100374.66;4970767;28;20442;-80
2020/12/10 04:35:39;;;;;;;4.93;1.40;;;;;;;5.21;100.00;100373.50;4953742;28;20445;-78
2020/12/10 04:38:05;;;;;;;4.63;1.07;;;;;;;5.14;100.00;100375.91;4970081;28;20519;-78
2020/12/10 04:40:31;;;;;;;4.17;1.10;;;;;;;5.13;100.00;100369.00;4990723;28;21035;-78
2020/12/10 04:42:58;;;;;;;6.73;1.77;;;;;;;5.18;100.00;100382.16;4967270;28;20449;-79
2020/12/10 04:45:24;;;;;;;6.13;1.30;;;;;;;5.25;100.00;100376.28;4968150;28;20491;-77
2020/12/10 04:47:51;;;;;;;2.90;0.90;;;;;;;5.31;100.00;100374.97;4976907;28;20530;-78
2020/12/10 04:50:22;;;;;;;3.47;1.10;;;;;;;5.32;100.00;100380.00;4972235;28;20189;-80
2020/12/10 04:52:47;;;;;;;6.07;1.00;;;;;;;5.24;100.00;100391.53;4998278;28;20452;-80
2020/12/10 04:55:12;;;;;;;3.40;0.97;;;;;;;5.09;100.00;100386.00;5012801;28;20433;-80
2020/12/10 04:57:42;;;;;;;2.23;0.37;;;;;;;5.22;100.00;100382.28;5010808;28;20215;-79
2020/12/10 05:00:09;;;;;;;3.63;1.13;;;;;;;5.33;100.00;100378.91;5007651;28;20181;-79
2020/12/10 05:02:34;;;;;;;3.60;0.90;;;;;;;5.36;100.00;100380.91;5010657;28;20435;-80
2020/12/10 05:05:00;;;;;;;3.23;1.33;;;;;;;5.27;100.00;100372.19;5012055;28;20522;-80
2020/12/10 05:07:58;;;;;;;3.83;0.83;;;;;;;5.37;100.00;100374.47;5009640;28;20244;-75
2020/12/10 05:10:24;;;;;;;3.80;1.27;;;;;;;5.37;100.00;100376.34;4998807;28;20204;-76
2020/12/10 05:12:50;;;;;;;3.00;0.97;;;;;;;5.40;100.00;100376.47;4969465;28;20452;-79
2020/12/10 05:15:18;;;;;;;4.43;1.00;;;;;;;5.49;100.00;100371.88;5006289;28;20705;-80
2020/12/10 05:17:44;;;;;;;4.97;1.80;;;;;;;5.29;100.00;100371.84;5002279;28;20460;-75
2020/12/10 05:20:10;;;;;;;3.70;0.87;;;;;;;5.30;100.00;100366.19;4998883;28;20848;-79
2020/12/10 05:22:44;;;;;;;5.20;0.97;;;;;;;5.31;100.00;100375.78;4987007;28;20697;-79
2020/12/10 05:25:10;;;;;;;4.67;0.90;;;;;;;5.45;100.00;100368.28;4974333;28;20323;-78
2020/12/10 05:27:35;;;;;;;3.40;0.70;;;;;;;5.41;100.00;100372.72;4988246;28;20836;-80
2020/12/10 05:30:03;;;;;;;5.47;1.30;;;;;;;5.39;100.00;100366.91;5007942;28;20216;-80
2020/12/10 05:32:42;;;;;;;4.60;0.87;;;;;;;5.36;100.00;100375.56;5002302;28;20657;-79
2020/12/10 05:35:13;;;;;;;2.63;0.77;;;;;;;5.34;100.00;100374.34;4975696;28;20925;-80
2020/12/10 05:37:40;;;;;;;4.50;1.43;;;;;;;5.32;100.00;100382.66;5004378;28;20471;-79
2020/12/10 05:40:06;;;;;;;3.47;0.90;;;;;;;5.17;100.00;100385.13;5001627;28;20428;-80
2020/12/10 05:42:43;;;;;;;2.67;0.63;;;;;;;5.23;100.00;100376.63;5001828;28;20471;-80
2020/12/10 05:45:20;;;;;;;4.20;1.00;;;;;;;5.29;100.00;100374.53;5003828;28;20447;-79
2020/12/10 05:47:59;;;;;;;4.57;1.03;;;;;;;5.29;100.00;100375.31;4997949;28;20441;-80
2020/12/10 05:50:27;;;;;;;4.23;0.93;;;;;;;5.31;100.00;100375.78;5010952;28;20459;-75
2020/12/10 05:52:56;;;;;;;7.20;1.33;;;;;;;5.29;100.00;100377.97;5010818;28;20604;-80
2020/12/10 05:55:21;;;;;;;3.97;0.97;;;;;;;4.93;100.00;100377.78;5010167;28;20811;-80
2020/12/10 05:57:48;;;;;;;5.47;0.57;;;;;;;5.14;100.00;100372.44;5009014;28;20479;-80
2020/12/10 06:00:13;;;;;;;3.73;0.80;;;;;;;5.25;100.00;100377.06;5003649;28;20184;-79
2020/12/10 06:02:40;;;;;;;4.10;1.23;;;;;;;5.21;100.00;100383.38;5010671;28;20454;-80
2020/12/10 06:05:06;;;;;;;3.13;0.77;;;;;;;5.22;100.00;100377.72;5008375;28;20185;-79
2020/12/10 06:07:31;;;;;;;3.07;0.80;;;;;;;5.32;100.00;100376.56;4998149;28;20430;-80
2020/12/10 06:09:58;;;;;;;3.83;1.00;;;;;;;5.39;100.00;100385.59;5012050;28;20203;-74
2020/12/10 06:12:24;;;;;;;2.47;0.80;;;;;;;5.36;100.00;100377.47;5014029;28;20232;-80
2020/12/10 06:14:55;;;;;;;4.30;0.90;;;;;;;5.12;100.00;100388.78;5007761;28;20455;-78
2020/12/10 06:17:21;;;;;;;4.03;0.77;;;;;;;5.16;100.00;100381.69;5011563;28;20479;-77
2020/12/10 06:19:47;;;;;;;3.30;0.80;;;;;;;5.14;100.00;100383.13;4995071;28;20814;-77
2020/12/10 06:22:26;;;;;;;5.37;1.23;;;;;;;5.00;100.00;100386.03;4998119;28;20980;-77
2020/12/10 06:25:02;;;;;;;4.00;0.77;;;;;;;5.11;100.00;100375.78;4999759;28;20512;-76
2020/12/10 06:27:28;;;;;;;2.83;0.63;;;;;;;5.24;100.00;100385.41;4998716;28;20448;-78
2020/12/10 06:30:11;;;;;;;4.73;1.40;;;;;;;5.09;100.00;100386.75;5007362;28;20567;-78
2020/12/10 06:32:41;;;;;;;3.40;0.93;;;;;;;5.09;100.00;100399.34;5000693;28;20862;-74
2020/12/10 06:35:24;;;;;;;4.80;0.90;;;;;;;4.99;100.00;100381.81;5000775;28;21656;-77
2020/12/10 06:37:50;;;;;;;4.43;0.93;;;;;;;5.11;100.00;100383.78;5006748;28;20467;-80
2020/12/10 06:40:36;;;;;;;4.30;1.17;;;;;;;5.13;100.00;100384.25;4999957;28;20521;-78
2020/12/10 06:43:07;;;;;;;3.43;1.03;;;;;;;5.10;100.00;100392.88;5001975;28;20284;-80
2020/12/10 06:45:36;;;;;;;4.20;1.00;;;;;;;5.07;100.00;100388.97;5003797;28;20483;-76
2020/12/10 06:48:09;;;;;;;2.53;0.50;;;;;;;5.09;100.00;100383.31;5003908;28;20485;-78
2020/12/10 06:50:37;;;;;;;3.83;1.00;;;;;;;5.20;100.00;100382.63;5012496;28;20501;-78
2020/12/10 06:53:10;;;;;;;3.90;1.10;;;;;;;5.25;100.00;100386.97;5010163;28;20452;-81
2020/12/10 06:55:54;;;;;;;3.90;0.80;;;;;;;5.33;100.00;100392.25;4992931;28;20503;-79
2020/12/10 06:58:20;;;;;;;3.73;0.93;;;;;;;5.08;100.00;100387.09;5010459;28;20565;-80
2020/12/10 07:00:48;;;;;;;3.00;0.80;;;;;;;5.01;100.00;100382.28;5008781;28;20471;-77
2020/12/10 07:03:23;;;;;;;3.43;0.87;;;;;;;5.12;100.00;100383.47;4988941;28;20653;-78
2020/12/10 07:05:48;;;;;;;6.20;1.60;;;;;;;4.95;100.00;100388.91;5003316;28;20446;-78
2020/12/10 07:08:17;;;;;;;2.97;0.97;;;;;;;5.10;100.00;100396.34;5006798;28;20435;-79
2020/12/10 07:10:46;;;;;;;7.07;1.77;;;;;;;5.15;100.00;100393.47;5003078;28;20208;-79
2020/12/10 07:13:15;;;;;;;2.57;0.40;;;;;;;5.10;100.00;100401.69;5010637;28;20466;-81
2020/12/10 07:15:40;;;;;;;5.23;1.10;;;;;;;5.15;100.00;100396.13;5008788;28;20438;-79
2020/12/10 07:18:06;;;;;;;4.57;1.10;;;;;;;4.98;100.00;100390.13;5009117;28;20456;-78
2020/12/10 07:20:33;;;;;;;2.33;0.47;;;;;;;4.93;100.00;100390.31;5009784;28;20216;-77
2020/12/10 07:23:00;;;;;;;4.27;1.50;;;;;;;5.02;100.00;100391.03;5009640;28;20474;-81
2020/12/10 07:25:26;;;;;;;8.87;1.50;;;;;;;5.04;100.00;100399.50;5006611;28;20443;-80
2020/12/10 07:27:52;;;;;;;5.73;1.20;;;;;;;5.08;100.00;100409.22;5005254;28;20426;-80
2020/12/10 07:30:19;;;;;;;4.33;0.80;;;;;;;4.92;100.00;100404.75;5011185;28;20448;-81
2020/12/10 07:32:45;;;;;;;5.10;0.90;;;;;;;4.87;100.00;100413.75;5012894;28;20538;-78
2020/12/10 07:35:12;;;;;;;5.40;1.13;;;;;;;4.84;100.00;100411.69;5015903;28;20516;-80
2020/12/10 07:37:39;;;;;;;3.53;0.90;;;;;;;4.79;100.00;100409.22;5010142;28;20471;-76
2020/12/10 07:40:12;;;;;;;4.47;1.40;;;;;;;4.76;100.00;100412.56;5021148;28;20443;-79
2020/12/10 07:42:38;;;;;;;4.77;1.47;;;;;;;4.92;100.00;100410.88;5019897;28;20448;-81
2020/12/10 07:45:37;;;;;;;5.03;1.00;;;;;;;4.98;100.00;100417.59;5001204;28;20925;-80
2020/12/10 07:48:04;;;;;;;5.47;1.40;;;;;;;4.70;100.00;100416.50;4970033;28;20870;-78
2020/12/10 07:50:38;;;;;;;4.20;1.03;;;;;;;4.80;100.00;100416.13;4973150;28;20492;-78
2020/12/10 07:53:07;;;;;;;3.37;0.77;;;;;;;4.64;100.00;100415.13;4970207;28;20457;-79
2020/12/10 07:55:44;;;;;;;2.80;0.93;;;;;;;4.64;100.00;100412.44;4955598;28;20456;-79
2020/12/10 07:58:09;;;;;;;5.40;1.00;;;;;;;4.60;100.00;100416.84;4956412;28;20465;-79
2020/12/10 08:00:36;;;;;;;8.50;1.80;;;;;;;4.42;100.00;100416.13;4953706;28;20893;-79
2020/12/10 08:03:21;;;;;;;3.70;1.00;;;;;;;4.58;100.00;100417.19;4954513;28;20277;-80
2020/12/10 08:06:08;;;;;;;3.50;1.00;;;;;;;4.42;100.00;100410.03;4968535;28;20645;-77
2020/12/10 08:08:46;;;;;;;3.70;1.03;;;;;;;4.59;100.00;100408.06;4955774;28;20450;-81
2020/12/10 08:11:15;;;;;;;6.17;0.97;;;;;;;4.68;100.00;100408.03;4969290;28;20475;-79
2020/12/10 08:13:59;;;;;;;4.70;1.40;;;;;;;4.84;100.00;100405.59;4947877;28;20443;-78
2020/12/10 08:16:38;;;;;;;4.60;1.37;;;;;;;4.75;100.00;100410.97;4971182;28;20453;-81
2020/12/10 08:19:13;;;;;;;4.77;1.70;;;;;;;4.65;100.00;100400.66;4970457;28;20477;-81
2020/12/10 08:21:38;;;;;;;3.50;0.90;;;;;;;4.85;100.00;100405.28;5003684;22;20490;-77
2020/12/10 08:24:04;;;;;;;5.40;1.30;;;;;;;4.93;100.00;100412.47;5017150;28;20443;-77
2020/12/10 08:26:29;;;;;;;6.00;1.20;;;;;;;4.94;100.00;100400.66;5022450;28;20177;-77
2020/12/10 08:28:55;;;;;;;4.73;1.07;;;;;;;4.95;100.00;100404.91;5016165;28;20191;-77
2020/12/10 08:31:27;;;;;;;3.30;0.90;;;;;;;4.89;100.00;100408.88;5012488;28;20207;-77
2020/12/10 08:33:53;;;;;;;4.87;1.20;;;;;;;4.83;100.00;100412.81;5018774;28;20450;-77
2020/12/10 08:36:31;;;;;;;3.50;0.93;;;;;;;4.94;100.00;100406.00;5024939;28;20439;-77
2020/12/10 08:39:00;;;;;;;4.10;0.97;;;;;;;4.82;100.00;100403.25;5007913;28;20680;-77
2020/12/10 08:41:28;;;;;;;3.50;0.87;;;;;;;4.73;100.00;100407.06;5011387;28;20462;-77
2020/12/10 08:43:56;;;;;;;3.37;0.93;;;;;;;4.76;100.00;100398.44;5036089;28;20492;-77
2020/12/10 08:46:22;;;;;;;4.97;1.10;;;;;;;4.78;100.00;100409.56;5011791;28;20446;-76
2020/12/10 08:48:48;;;;;;;8.30;1.33;;;;;;;4.84;100.00;100406.38;5019957;28;20927;-77
2020/12/10 08:51:13;;;;;;;4.13;1.43;;;;;;;4.96;100.00;100409.13;5009837;28;20469;-78
2020/12/10 08:53:50;;;;;;;5.97;2.00;;;;;;;4.77;100.00;100416.78;5011611;28;20189;-77
2020/12/10 08:56:25;;;;;;;4.47;0.70;;;;;;;4.79;100.00;100411.91;5008125;28;20184;-78
2020/12/10 08:58:51;;;;;;;4.00;0.97;;;;;;;4.74;100.00;100404.09;5009930;28;20541;-77
2020/12/10 09:01:16;;;;;;;3.40;0.90;;;;;;;4.77;100.00;100403.44;5010009;28;20460;-77
2020/12/10 09:03:42;;;;;;;4.77;1.10;;;;;;;4.87;100.00;100396.94;5009915;28;20225;-77
2020/12/10 09:06:08;;;;;;;3.30;1.07;;;;;;;4.86;100.00;100398.81;5015421;28;20191;-78
2020/12/10 09:08:33;;;;;;;4.47;1.10;;;;;;;4.86;100.00;100393.50;5013540;28;20238;-77
2020/12/10 09:10:59;;;;;;;9.13;1.63;;;;;;;4.85;100.00;100405.28;5010434;28;20180;-77
2020/12/10 09:13:25;;;;;;;3.63;0.80;;;;;;;4.80;100.00;100408.13;4997934;28;20264;-77
2020/12/10 09:15:51;;;;;;;4.10;0.53;;;;;;;4.62;100.00;100403.19;5015177;28;20672;-77
2020/12/10 09:18:17;;;;;;;4.03;0.83;;;;;;;4.67;100.00;100395.78;5019539;28;20188;-77
2020/12/10 09:20:43;;;;;;;5.27;1.23;;;;;;;4.80;100.00;100402.78;5012345;28;20449;-76
2020/12/10 09:23:09;;;;;;;6.60;1.77;;;;;;;4.92;100.00;100394.09;5002810;28;20216;-78
2020/12/10 09:25:35;;;;;;;3.77;0.90;;;;;;;4.78;100.00;100391.66;4989553;28;20483;-78
2020/12/10 09:28:00;;;;;;;3.87;0.70;;;;;;;4.96;100.00;100395.00;4986900;28;21773;-78
2020/12/10 09:30:26;;;;;;;4.90;1.23;;;;;;;5.04;100.00;100384.28;5003204;28;20208;-78
2020/12/10 09:32:51;;;;;;;2.33;0.73;;;;;;;5.10;100.00;100388.34;5012128;28;20266;-78
2020/12/10 09:35:17;;;;;;;6.00;1.50;;;;;;;4.94;100.00;100381.22;5005714;28;20188;-78
2020/12/10 09:37:43;;;;;;;5.20;1.23;;;;;;;4.99;100.00;100389.03;5012128;28;20624;-78
2020/12/10 09:40:12;;;;;;;6.90;1.23;;;;;;;4.93;100.00;100380.44;5013491;28;20189;-77
2020/12/10 09:42:43;;;;;;;5.50;1.10;;;;;;;4.68;100.00;100389.38;5010865;28;20470;-77
2020/12/10 09:45:09;;;;;;;4.17;1.27;;;;;;;4.88;100.00;100383.28;5005076;28;20589;-77
2020/12/10 09:47:35;;;;;;;6.40;1.53;;;;;;;4.87;100.00;100388.94;5003531;28;20964;-78
2020/12/10 09:50:01;;;;;;;3.60;1.07;;;;;;;4.98;100.00;100382.13;4999304;28;20455;-78
2020/12/10 09:52:28;;;;;;;5.20;1.00;;;;;;;4.90;100.00;100374.94;5004497;28;20467;-78
2020/12/10 09:58:01;;;;;;;9.87;1.37;;;;;;;4.94;100.00;100375.88;4933571;28;20472;-78
2020/12/10 10:00:26;;;;;;;3.10;0.87;;;;;;;5.03;100.00;100377.38;4929025;28;20533;-77
2020/12/10 10:02:52;;;;;;;4.87;1.20;;;;;;;5.08;100.00;100371.88;4938740;28;20590;-78
2020/12/10 10:05:17;;;;;;;3.17;0.83;;;;;;;4.92;100.00;100368.19;4944444;28;20256;-77
2020/12/10 10:07:43;;;;;;;6.10;1.00;;;;;;;4.78;100.00;100367.66;4951618;28;20186;-77
2020/12/10 10:10:08;;;;;;;5.70;1.30;;;;;;;4.58;100.00;100377.19;4946143;28;20762;-77
2020/12/10 10:12:34;;;;;;;4.67;1.30;;;;;;;4.75;100.00;100372.84;4933926;29;20754;-77
2020/12/10 10:14:59;;;;;;;4.77;1.20;;;;;;;4.88;100.00;100369.19;4952478;28;20193;-77
2020/12/10 10:17:25;;;;;;;6.67;1.47;;;;;;;4.85;100.00;100367.94;4933965;28;20203;-78
2020/12/10 10:19:51;;;;;;;4.87;1.30;;;;;;;5.01;100.00;100357.47;4957117;28;20190;-77
2020/12/10 10:22:17;;;;;;;4.03;1.00;;;;;;;5.13;100.00;100355.66;4930457;28;20232;-77
2020/12/10 10:24:43;;;;;;;6.87;1.70;;;;;;;5.18;100.00;100355.47;4950860;28;20194;-77
2020/12/10 10:27:08;;;;;;;7.83;1.73;;;;;;;5.21;100.00;100349.47;4935781;28;20455;-77
2020/12/10 10:29:34;;;;;;;4.67;1.20;;;;;;;5.27;100.00;100347.38;4926649;28;20630;-77
2020/12/10 10:31:59;;;;;;;6.33;1.53;;;;;;;5.27;100.00;100355.38;4945257;28;20237;-77
2020/12/10 10:34:25;;;;;;;4.27;1.47;;;;;;;5.23;100.00;100346.47;4970238;28;20200;-77
2020/12/10 10:36:51;;;;;;;5.43;1.80;;;;;;;5.11;100.00;100349.84;4997437;28;20188;-77
2020/12/10 10:39:17;;;;;;;4.17;1.47;;;;;;;5.12;100.00;100342.63;4992860;28;20270;-77
2020/12/10 10:42:03;;;;;;;3.93;1.27;;;;;;;5.12;100.00;100343.44;5002531;28;20290;-78
2020/12/10 10:44:29;;;;;;;4.40;1.00;;;;;;;5.15;100.00;100344.66;4983134;28;20451;-77
2020/12/10 10:46:54;;;;;;;4.50;1.40;;;;;;;5.18;100.00;100342.13;4990986;28;20452;-77
2020/12/10 10:49:20;;;;;;;7.27;1.80;;;;;;;5.19;100.00;100341.00;4986885;28;20326;-77
2020/12/10 10:51:49;;;;;;;2.07;0.53;;;;;;;5.28;100.00;100333.69;4989713;28;20239;-77
2020/12/10 10:54:15;;;;;;;4.70;1.10;;;;;;;5.34;100.00;100331.63;4990025;28;20203;-77
2020/12/10 10:56:41;;;;;;;5.33;1.03;;;;;;;5.38;100.00;100335.22;4990372;28;20808;-77
2020/12/10 10:59:07;;;;;;;4.90;1.07;;;;;;;5.26;100.00;100335.16;4980106;28;20913;-77
2020/12/10 11:01:32;;;;;;;4.67;1.30;;;;;;;5.28;100.00;100324.94;4969065;28;20452;-77
2020/12/10 11:03:58;;;;;;;5.67;1.10;;;;;;;5.26;100.00;100327.16;4973633;28;20444;-76
2020/12/10 11:06:23;;;;;;;2.80;0.80;;;;;;;5.34;100.00;100329.72;4974566;28;20268;-76
2020/12/10 11:08:49;;;;;;;2.73;0.63;;;;;;;5.35;100.00;100327.84;4975397;28;20739;-77
2020/12/10 11:11:19;;;;;;;3.50;0.93;;;;;;;5.24;100.00;100324.81;4983892;28;20211;-77
2020/12/10 11:13:45;;;;;;;4.73;0.97;;;;;;;5.29;100.00;100321.94;4987970;28;20272;-77
2020/12/10 11:16:11;;;;;;;5.60;1.30;;;;;;;5.26;100.00;100317.25;4989034;28;20467;-77
2020/12/10 11:18:39;;;;;;;4.60;0.83;;;;;;;5.32;100.00;100328.50;4990404;28;20530;-77
2020/12/10 11:21:04;;;;;;;2.97;0.87;;;;;;;5.29;100.00;100321.16;4978612;28;20447;-77
2020/12/10 11:23:29;;;;;;;3.70;0.97;;;;;;;5.30;100.00;100312.81;5012990;28;21091;-77
2020/12/10 11:25:55;;;;;;;3.57;0.87;;;;;;;5.25;100.00;100312.22;5011732;28;20185;-78
2020/12/10 11:28:20;;;;;;;3.80;0.87;;;;;;;5.17;100.00;100315.75;4997398;28;20182;-77
2020/12/10 11:30:46;;;;;;;6.77;1.57;;;;;;;5.21;100.00;100319.31;5007863;28;20276;-77